Airfield :







YOU CAN JOIN US ON...

 
LOGIN :

Register | Disclaimer

   EN    FR    IT 

 









Legend :    VFR   Marginal VFR   IFR   Intensive IFR   Very Intensive IFR
Visi :
Ceiling :
>= 8 km
>= 3000ft
5 to 8 km
1000 to 3000 ft
1500m to 5 km
500 to 1000 ft
800 to 1500m
200 to 500 ft
< 800m
< 200 ft
Symbols :   Thunderstorms  Fog  Heavy snow  Heavy precipitations  Wind > 20 kt







- Airport Elevation : 117 ft
- IATA code : KUS


BGKK - Kulusuk

CURRENT METAR :
  • 230550Z AUTO 08014KT 9999NDV -SN OVC018/// M04/M06 Q1008

EXPIRED METARs :
  • 230450Z AUTO 09015KT 4400NDV -SN OVC016/// M04/M06 Q1008
  • 230350Z AUTO 08023KT 0900NDV -SN OVC014/// M04/M06 Q1008

Expired Forecast.
BGGL FIR / North America



MET'MAP, your aeronautical weather chart ! - Copyright ORBIFLY December 2007 - Disclaimer

ORBIFLY MET'MAP TEAM :

Programming & Development : Alexandra Zaïnal
Concept & Development : Baudouin d'Aumeries
Co-Development & Prog : Marc-Olivier Méhu
Technical & hardware support : Manuel Goepfert

Contact : metmap@orbifly.com




SOURCES & CREDITS :

   NOAA